createdAt,value
2017-11-10T00:01:29.492Z,79.60
2017-11-10T00:03:56.846Z,79.60
2017-11-10T00:06:23.068Z,79.70
2017-11-10T00:08:50.054Z,80.10
2017-11-10T00:11:17.273Z,80.00
2017-11-10T00:13:43.498Z,79.90
2017-11-10T00:16:09.824Z,79.80
2017-11-10T00:18:37.205Z,79.80
2017-11-10T00:21:03.387Z,80.10
2017-11-10T00:23:30.350Z,80.00
2017-11-10T00:25:56.573Z,80.00
2017-11-10T00:28:22.772Z,79.90
2017-11-10T00:30:50.699Z,79.70
2017-11-10T00:33:17.633Z,79.70
2017-11-10T00:35:44.681Z,79.80
2017-11-10T00:38:11.872Z,80.00
2017-11-10T00:40:38.906Z,80.00
2017-11-10T00:43:05.139Z,79.90
2017-11-10T00:45:32.087Z,79.90
2017-11-10T00:47:58.614Z,80.20
2017-11-10T00:50:26.466Z,80.10
2017-11-10T00:52:53.952Z,80.10
2017-11-10T00:55:21.144Z,80.10
2017-11-10T00:57:47.349Z,80.40
2017-11-10T01:00:14.633Z,80.30
2017-11-10T01:02:41.376Z,80.30
2017-11-10T01:05:07.880Z,80.50
2017-11-10T01:07:34.051Z,80.40
2017-11-10T01:10:00.946Z,80.30
2017-11-10T01:12:27.884Z,80.30
2017-11-10T01:14:55.716Z,80.40
2017-11-10T01:17:22.715Z,80.40
2017-11-10T01:19:50.669Z,80.40
2017-11-10T01:22:17.647Z,80.40
2017-11-10T01:24:43.861Z,80.40
2017-11-10T01:27:11.409Z,80.40
2017-11-10T01:29:39.184Z,80.10
2017-11-10T01:32:06.853Z,79.90
2017-11-10T01:34:34.955Z,79.90
2017-11-10T01:37:02.257Z,79.80
2017-11-10T01:39:28.547Z,79.80
2017-11-10T01:41:55.345Z,79.80
2017-11-10T01:44:22.181Z,79.80
2017-11-10T01:46:48.782Z,79.70
2017-11-10T01:49:19.982Z,80.20
2017-11-10T01:51:46.863Z,80.20
2017-11-10T01:54:13.314Z,80.00
2017-11-10T01:56:40.340Z,80.10
2017-11-10T01:59:06.644Z,80.10
2017-11-10T02:01:34.232Z,80.10
2017-11-10T02:04:00.456Z,80.10
2017-11-10T02:06:26.701Z,80.10
2017-11-10T02:08:54.610Z,80.00
2017-11-10T02:11:22.224Z,80.00
2017-11-10T02:13:49.656Z,80.00
2017-11-10T02:16:16.621Z,80.20
2017-11-10T02:18:43.808Z,80.10
2017-11-10T02:21:11.161Z,80.10
2017-11-10T02:23:38.219Z,80.30
2017-11-10T02:26:04.640Z,80.30
2017-11-10T02:28:30.888Z,80.30
2017-11-10T02:30:57.269Z,80.50
2017-11-10T02:33:24.580Z,79.80
2017-11-10T02:35:51.680Z,80.10
2017-11-10T02:38:18.635Z,80.00
2017-11-10T02:40:44.950Z,80.00
2017-11-10T02:43:12.034Z,80.40
2017-11-10T02:45:39.540Z,80.40
2017-11-10T02:48:05.733Z,80.20
2017-11-10T02:50:33.324Z,80.00
2017-11-10T02:53:00.516Z,80.20
2017-11-10T02:55:27.293Z,80.10
2017-11-10T02:57:54.006Z,80.30
2017-11-10T03:00:20.871Z,80.40
2017-11-10T03:02:48.231Z,80.30
2017-11-10T03:05:15.088Z,80.30
2017-11-10T03:07:41.322Z,80.60
2017-11-10T03:10:07.577Z,80.20
2017-11-10T03:12:35.528Z,80.70
2017-11-10T03:15:02.320Z,80.70
2017-11-10T03:17:30.062Z,80.50
2017-11-10T03:19:56.855Z,80.40
2017-11-10T03:22:23.109Z,79.70
2017-11-10T03:24:50.082Z,79.70
2017-11-10T03:27:16.651Z,79.70
2017-11-10T03:29:43.400Z,79.80
2017-11-10T03:32:09.637Z,79.90
2017-11-10T03:34:35.835Z,80.10
2017-11-10T03:37:02.423Z,80.10
2017-11-10T03:39:29.379Z,79.90
2017-11-10T03:41:56.984Z,80.10
2017-11-10T03:44:23.448Z,80.10
2017-11-10T03:46:51.125Z,80.50
2017-11-10T03:49:18.479Z,80.20
2017-11-10T03:51:45.545Z,80.20
2017-11-10T03:54:12.771Z,80.20
2017-11-10T03:56:39.759Z,79.80
2017-11-10T03:59:06.504Z,79.80
2017-11-10T04:01:33.295Z,79.90
2017-11-10T04:04:00.321Z,79.80
2017-11-10T04:06:27.954Z,79.80
2017-11-10T04:08:54.722Z,79.80
2017-11-10T04:11:21.764Z,79.60
2017-11-10T04:13:49.507Z,79.80
2017-11-10T04:16:16.722Z,79.80
2017-11-10T04:18:44.688Z,79.40
2017-11-10T04:21:12.239Z,79.60
2017-11-10T04:23:39.694Z,79.60
2017-11-10T04:26:06.632Z,79.40
2017-11-10T04:28:32.878Z,79.30
2017-11-10T04:31:01.075Z,79.00
2017-11-10T04:33:27.867Z,79.00
2017-11-10T04:35:55.492Z,79.30
2017-11-10T04:38:21.741Z,79.60
2017-11-10T04:40:47.952Z,79.50
2017-11-10T04:43:14.944Z,79.40
2017-11-10T04:45:42.513Z,79.40
2017-11-10T04:48:08.804Z,79.30
2017-11-10T04:50:35.028Z,79.10
2017-11-10T04:53:02.381Z,79.10
2017-11-10T04:55:29.122Z,79.00
2017-11-10T04:57:56.029Z,79.10
2017-11-10T05:00:23.609Z,78.70
2017-11-10T05:02:50.831Z,78.60
2017-11-10T05:05:17.100Z,78.90
2017-11-10T05:07:43.359Z,79.00
2017-11-10T05:10:10.854Z,79.40
2017-11-10T05:12:37.671Z,79.40
2017-11-10T05:15:05.606Z,79.40
2017-11-10T05:17:32.352Z,79.40
2017-11-10T05:19:58.670Z,79.10
2017-11-10T05:22:24.924Z,79.20
2017-11-10T05:24:52.848Z,79.40
2017-11-10T05:27:19.644Z,79.30
2017-11-10T05:29:47.211Z,79.10
2017-11-10T05:32:14.853Z,79.10
2017-11-10T05:34:42.447Z,79.40
2017-11-10T05:37:09.936Z,79.30
2017-11-10T05:39:36.722Z,79.30
2017-11-10T05:42:03.836Z,79.50
2017-11-10T05:44:30.114Z,79.40
2017-11-10T05:46:56.370Z,79.50
2017-11-10T05:49:23.222Z,79.30
2017-11-10T05:51:50.544Z,79.50
2017-11-10T05:54:16.902Z,79.60
2017-11-10T05:56:43.775Z,79.60
2017-11-10T05:59:10.316Z,79.70
2017-11-10T06:01:37.134Z,79.30
2017-11-10T06:04:04.471Z,79.30
2017-11-10T06:06:31.674Z,79.30
2017-11-10T06:08:59.275Z,79.40
2017-11-10T06:11:27.003Z,79.20
2017-11-10T06:13:53.301Z,79.10
2017-11-10T06:16:20.086Z,79.30
2017-11-10T06:18:47.876Z,79.40
2017-11-10T06:21:15.445Z,79.00
2017-11-10T06:23:41.695Z,78.90
2017-11-10T06:26:07.880Z,79.00
2017-11-10T06:28:34.452Z,79.10
2017-11-10T06:31:01.463Z,79.40
2017-11-10T06:33:27.981Z,79.40
2017-11-10T06:35:55.850Z,79.50
2017-11-10T06:38:23.116Z,79.60
2017-11-10T06:40:49.674Z,79.60
2017-11-10T06:43:16.702Z,79.20
2017-11-10T06:45:44.473Z,79.20
2017-11-10T06:48:12.107Z,79.00
2017-11-10T06:50:38.785Z,79.00
2017-11-10T06:53:05.977Z,78.70
2017-11-10T06:55:33.510Z,78.90
2017-11-10T06:58:00.178Z,78.90
2017-11-10T07:00:27.485Z,79.00
2017-11-10T07:02:55.259Z,79.00
2017-11-10T07:05:22.057Z,79.10
2017-11-10T07:07:49.570Z,79.30
2017-11-10T07:10:16.200Z,79.50
2017-11-10T07:12:43.031Z,79.70
2017-11-10T07:15:09.221Z,79.60
2017-11-10T07:17:36.080Z,80.00
2017-11-10T07:20:02.337Z,79.30
2017-11-10T07:22:28.963Z,79.50
2017-11-10T07:24:56.285Z,79.50
2017-11-10T07:27:23.941Z,79.60
2017-11-10T07:29:50.138Z,79.60
2017-11-10T07:32:18.086Z,79.10
2017-11-10T07:34:45.208Z,79.00
2017-11-10T07:37:11.588Z,79.20
2017-11-10T07:39:38.773Z,78.70
2017-11-10T07:42:05.807Z,78.60
2017-11-10T07:44:32.553Z,78.60
2017-11-10T07:46:58.810Z,78.60
2017-11-10T07:49:26.015Z,78.80
2017-11-10T07:51:52.972Z,78.40
2017-11-10T07:54:19.245Z,78.40
2017-11-10T07:56:45.461Z,78.60
2017-11-10T07:59:12.229Z,78.40
2017-11-10T08:01:38.447Z,78.30
2017-11-10T08:04:05.289Z,78.40
2017-11-10T08:06:31.972Z,78.20
2017-11-10T08:08:58.766Z,78.20
2017-11-10T08:11:25.763Z,78.70
2017-11-10T08:13:52.505Z,78.80
2017-11-10T08:16:18.886Z,78.70
2017-11-10T08:18:45.714Z,79.00
2017-11-10T08:21:11.911Z,78.90
2017-11-10T08:23:39.048Z,79.20
2017-11-10T08:26:05.289Z,78.40
2017-11-10T08:28:31.512Z,78.10
2017-11-10T08:30:58.107Z,78.30
2017-11-10T08:33:25.968Z,78.00
2017-11-10T08:35:53.186Z,78.00
2017-11-10T08:38:19.927Z,77.50
2017-11-10T08:40:47.671Z,77.10
2017-11-10T08:43:14.913Z,77.40
2017-11-10T08:45:42.326Z,77.80
2017-11-10T08:48:09.805Z,77.30
2017-11-10T08:50:37.287Z,76.70
2017-11-10T08:53:04.031Z,76.60
2017-11-10T08:55:30.242Z,76.50
2017-11-10T08:57:58.165Z,75.20
2017-11-10T09:00:25.664Z,75.20
2017-11-10T09:02:52.817Z,75.30
2017-11-10T09:05:19.977Z,75.90
2017-11-10T09:07:47.657Z,75.60
2017-11-10T09:10:13.897Z,75.60
2017-11-10T09:12:40.616Z,76.20
2017-11-10T09:15:08.385Z,76.40
2017-11-10T09:17:35.150Z,76.30
2017-11-10T09:20:02.221Z,75.20
2017-11-10T09:22:29.475Z,74.30
2017-11-10T09:24:56.493Z,73.60
2017-11-10T09:27:23.317Z,73.60
2017-11-10T09:30:05.786Z,73.80
2017-11-10T09:32:35.850Z,73.70
2017-11-10T09:35:08.241Z,73.60
2017-11-10T09:37:41.986Z,73.60
2017-11-10T09:40:10.016Z,74.20
2017-11-10T09:42:42.871Z,74.20
2017-11-10T09:48:29.040Z,73.10
2017-11-10T09:51:02.654Z,72.80
2017-11-10T09:53:36.291Z,73.00
2017-11-10T09:56:05.890Z,73.00
2017-11-10T09:58:48.556Z,73.10
2017-11-10T10:01:21.495Z,71.30
2017-11-10T10:04:03.978Z,71.90
2017-11-10T10:06:36.357Z,71.30
2017-11-10T10:09:20.822Z,71.00
2017-11-10T10:11:50.817Z,70.00
2017-11-10T10:14:17.056Z,69.70
2017-11-10T10:16:47.274Z,69.20
2017-11-10T10:19:14.069Z,68.80
2017-11-10T10:21:46.932Z,68.60
2017-11-10T10:24:13.583Z,68.30
2017-11-10T10:26:40.638Z,67.30
2017-11-10T10:29:06.909Z,67.20
2017-11-10T10:31:33.583Z,67.80
2017-11-10T10:34:01.618Z,67.30
2017-11-10T10:36:28.417Z,67.20
2017-11-10T10:38:56.456Z,66.30
2017-11-10T10:41:23.695Z,66.30
2017-11-10T10:43:49.953Z,66.10
2017-11-10T10:46:17.177Z,66.10
2017-11-10T10:48:44.470Z,67.20
2017-11-10T10:51:10.728Z,65.70
2017-11-10T10:53:37.342Z,66.10
2017-11-10T10:56:04.757Z,65.90
2017-11-10T10:58:31.764Z,66.50
2017-11-10T11:00:59.207Z,65.40
2017-11-10T11:03:26.018Z,65.30
2017-11-10T11:05:53.423Z,65.40
2017-11-10T11:08:21.632Z,66.40
2017-11-10T11:10:48.401Z,66.40
2017-11-10T11:13:15.172Z,65.70
2017-11-10T11:15:42.717Z,66.50
2017-11-10T11:18:09.276Z,66.40
2017-11-10T11:20:36.118Z,66.20
2017-11-10T11:23:03.496Z,66.20
2017-11-10T11:25:30.781Z,66.40
2017-11-10T11:27:58.774Z,66.50
2017-11-10T11:30:25.454Z,66.50
2017-11-10T11:32:52.269Z,66.70
2017-11-10T11:35:19.358Z,65.50
2017-11-10T11:37:45.619Z,65.40
2017-11-10T11:40:12.480Z,66.40
2017-11-10T11:42:39.452Z,65.20
2017-11-10T11:45:05.979Z,65.10
2017-11-10T11:47:32.278Z,65.00
2017-11-10T11:49:59.076Z,65.30
2017-11-10T11:52:25.608Z,65.00
2017-11-10T11:54:53.207Z,64.20
2017-11-10T11:57:19.966Z,64.20
2017-11-10T11:59:46.961Z,64.70
2017-11-10T12:02:13.148Z,64.70
2017-11-10T12:04:40.441Z,65.70
2017-11-10T12:07:07.920Z,65.10
2017-11-10T12:09:35.135Z,65.10
2017-11-10T12:12:01.854Z,65.00
2017-11-10T12:14:28.651Z,64.80
2017-11-10T12:16:56.163Z,64.20
2017-11-10T12:19:23.459Z,64.10
2017-11-10T12:21:50.477Z,65.00
2017-11-10T12:24:16.786Z,65.00
2017-11-10T12:26:43.043Z,65.00
2017-11-10T12:29:10.119Z,65.70
2017-11-10T12:31:38.296Z,64.60
2017-11-10T12:34:05.296Z,63.50
2017-11-10T12:36:31.626Z,63.50
2017-11-10T12:38:58.465Z,64.10
2017-11-10T12:41:25.465Z,64.40
2017-11-10T12:43:51.979Z,64.40
2017-11-10T12:46:18.283Z,63.40
2017-11-10T12:48:51.991Z,64.10
2017-11-10T12:51:19.726Z,63.90
2017-11-10T12:53:46.945Z,63.70
2017-11-10T12:56:13.860Z,63.20
2017-11-10T12:58:40.108Z,63.40
2017-11-10T13:01:07.021Z,62.80
2017-11-10T13:03:35.025Z,63.60
2017-11-10T13:06:01.790Z,63.60
2017-11-10T13:08:28.785Z,63.50
2017-11-10T13:10:56.025Z,63.50
2017-11-10T13:13:22.519Z,64.10
2017-11-10T13:15:50.149Z,63.70
2017-11-10T13:18:16.529Z,63.70
2017-11-10T13:20:43.534Z,64.40
2017-11-10T13:23:09.764Z,63.70
2017-11-10T13:25:37.017Z,64.10
2017-11-10T13:28:03.229Z,63.50
2017-11-10T13:30:30.127Z,64.30
2017-11-10T13:32:56.869Z,63.50
2017-11-10T13:35:23.613Z,63.20
2017-11-10T13:37:50.789Z,63.30
2017-11-10T13:40:17.005Z,63.80
2017-11-10T13:42:43.821Z,64.20
2017-11-10T13:45:10.871Z,64.30
2017-11-10T13:47:37.080Z,64.20
2017-11-10T13:50:04.247Z,65.70
2017-11-10T13:52:31.082Z,65.70
2017-11-10T13:54:58.023Z,65.40
2017-11-10T13:57:24.983Z,65.50
2017-11-10T13:59:51.808Z,65.50
2017-11-10T14:02:19.280Z,66.10
2017-11-10T14:04:46.678Z,66.20
2017-11-10T14:07:13.721Z,66.40
2017-11-10T14:09:39.936Z,66.30
2017-11-10T14:12:06.894Z,66.90
2017-11-10T14:14:33.341Z,67.80
2017-11-10T14:17:00.903Z,68.40
2017-11-10T14:19:28.125Z,68.40
2017-11-10T14:21:54.845Z,68.90
2017-11-10T14:24:21.073Z,69.30
2017-11-10T14:26:47.303Z,69.40
2017-11-10T14:29:14.137Z,69.60
2017-11-10T14:31:40.929Z,69.50
2017-11-10T14:34:08.147Z,69.70
2017-11-10T14:36:34.388Z,69.70
2017-11-10T14:39:00.621Z,69.30
2017-11-10T14:41:27.625Z,70.40
2017-11-10T14:43:53.863Z,71.00
2017-11-10T14:46:20.664Z,71.10
2017-11-10T14:48:48.126Z,71.50
2017-11-10T14:51:15.591Z,72.10
2017-11-10T14:53:43.005Z,71.80
2017-11-10T14:56:09.804Z,71.60
2017-11-10T14:58:36.017Z,71.70
2017-11-10T15:01:02.983Z,72.10
2017-11-10T15:03:29.663Z,72.40
2017-11-10T15:05:55.935Z,72.40
2017-11-10T15:08:22.172Z,72.30
2017-11-10T15:10:49.051Z,72.10
2017-11-10T15:13:15.825Z,72.80
2017-11-10T15:15:42.174Z,72.90
2017-11-10T15:18:09.547Z,72.70
2017-11-10T15:20:36.654Z,72.50
2017-11-10T15:23:02.868Z,72.50
2017-11-10T15:25:30.130Z,72.70
2017-11-10T15:27:56.904Z,72.80
2017-11-10T15:30:23.900Z,74.60
2017-11-10T15:32:50.707Z,75.40
2017-11-10T15:35:16.980Z,73.20
2017-11-10T15:37:43.362Z,73.80
2017-11-10T15:40:11.009Z,74.10
2017-11-10T15:42:38.010Z,74.60
2017-11-10T15:45:04.479Z,73.90
2017-11-10T15:47:32.111Z,74.80
2017-11-10T15:49:58.348Z,74.80
2017-11-10T15:52:25.118Z,74.50
2017-11-10T15:54:52.693Z,74.60
2017-11-10T15:57:19.779Z,74.60
2017-11-10T15:59:47.420Z,74.60
2017-11-10T16:02:13.680Z,74.60
2017-11-10T16:04:40.360Z,75.20
2017-11-10T16:07:06.619Z,74.80
2017-11-10T16:09:33.190Z,74.70
2017-11-10T16:12:00.331Z,76.00
2017-11-10T16:14:27.055Z,75.10
2017-11-10T16:16:53.275Z,75.00
2017-11-10T16:19:20.032Z,75.00
2017-11-10T16:21:46.551Z,76.20
2017-11-10T16:24:13.567Z,75.60
2017-11-10T16:26:39.824Z,74.90
2017-11-10T16:29:06.343Z,75.00
2017-11-10T16:31:32.555Z,75.90
2017-11-10T16:34:00.066Z,77.00
2017-11-10T16:36:26.528Z,77.00
2017-11-10T16:38:54.128Z,75.40
2017-11-10T16:41:22.304Z,75.40
2017-11-10T16:43:49.909Z,75.50
2017-11-10T16:46:16.145Z,75.40
2017-11-10T16:48:43.638Z,75.70
2017-11-10T16:51:09.865Z,75.70
2017-11-10T16:53:36.099Z,75.60
2017-11-10T16:56:02.970Z,75.60
2017-11-10T16:58:30.193Z,75.70
2017-11-10T17:00:56.695Z,76.00
2017-11-10T17:03:23.798Z,76.30
2017-11-10T17:05:50.056Z,76.20
2017-11-10T17:08:17.128Z,76.20
2017-11-10T17:10:43.966Z,76.20
2017-11-10T17:13:11.956Z,76.70
2017-11-10T17:15:38.686Z,76.70
2017-11-10T17:18:05.443Z,76.60
2017-11-10T17:20:31.669Z,77.30
2017-11-10T17:22:58.036Z,77.30
2017-11-10T17:25:25.244Z,77.30
2017-11-10T17:27:51.996Z,77.50
2017-11-10T17:30:18.632Z,77.70
2017-11-10T17:32:46.799Z,77.70
2017-11-10T17:35:13.785Z,77.70
2017-11-10T17:37:40.032Z,77.70
2017-11-10T17:40:07.822Z,77.40
2017-11-10T17:42:34.934Z,77.80
2017-11-10T17:45:02.585Z,78.00
2017-11-10T17:47:29.812Z,78.00
2017-11-10T17:49:56.353Z,78.40
2017-11-10T17:52:23.068Z,78.30
2017-11-10T17:54:50.185Z,78.80
2017-11-10T17:57:16.470Z,78.40
2017-11-10T17:59:44.011Z,78.90
2017-11-10T18:02:10.880Z,78.70
2017-11-10T18:04:37.641Z,78.50
2017-11-10T18:07:03.907Z,77.90
2017-11-10T18:09:30.703Z,78.30
2017-11-10T18:11:57.918Z,78.40
2017-11-10T18:14:25.721Z,78.30
2017-11-10T18:16:52.501Z,78.10
2017-11-10T18:19:19.770Z,78.20
2017-11-10T18:21:47.311Z,78.10
2017-11-10T18:24:14.119Z,78.20
2017-11-10T18:26:41.317Z,78.00
2017-11-10T18:29:08.862Z,77.80
2017-11-10T18:31:35.654Z,77.80
2017-11-10T18:34:02.448Z,78.50
2017-11-10T18:36:30.055Z,78.70
2017-11-10T18:38:57.289Z,78.40
2017-11-10T18:41:24.330Z,78.70
2017-11-10T18:43:50.663Z,78.80
2017-11-10T18:46:16.919Z,78.90
2017-11-10T18:48:46.199Z,78.50
2017-11-10T18:51:12.448Z,78.60
2017-11-10T18:53:41.526Z,78.50
2017-11-10T18:56:09.252Z,78.70
2017-11-10T18:58:36.093Z,78.90
2017-11-10T19:01:03.043Z,79.20
2017-11-10T19:03:30.446Z,78.80
2017-11-10T19:05:58.196Z,78.40
2017-11-10T19:08:24.456Z,78.40
2017-11-10T19:10:51.541Z,78.40
2017-11-10T19:13:18.296Z,78.20
2017-11-10T19:15:44.872Z,78.10
2017-11-10T19:18:11.907Z,79.80
2017-11-10T19:20:38.134Z,79.80
2017-11-10T19:23:04.640Z,80.50
2017-11-10T19:25:32.680Z,79.20
2017-11-10T19:28:00.697Z,79.10
2017-11-10T19:30:27.590Z,78.90
2017-11-10T19:32:55.157Z,79.10
2017-11-10T19:35:21.973Z,79.10
2017-11-10T19:37:48.742Z,79.40
2017-11-10T19:40:15.483Z,79.60
2017-11-10T19:42:42.718Z,78.70
2017-11-10T19:45:09.725Z,78.80
2017-11-10T19:47:35.973Z,78.70
2017-11-10T19:50:02.959Z,78.70
2017-11-10T19:52:29.377Z,78.70
2017-11-10T19:54:56.134Z,78.80
2017-11-10T19:57:22.705Z,79.30
2017-11-10T19:59:50.011Z,78.90
2017-11-10T20:02:16.558Z,78.90
2017-11-10T20:04:43.429Z,79.60
2017-11-10T20:07:10.646Z,79.20
2017-11-10T20:09:38.026Z,78.70
2017-11-10T20:12:04.828Z,78.80
2017-11-10T20:14:32.397Z,78.50
2017-11-10T20:16:59.046Z,78.50
2017-11-10T20:19:26.078Z,78.90
2017-11-10T20:21:52.306Z,78.90
2017-11-10T20:24:19.549Z,78.80
2017-11-10T20:26:46.506Z,78.50
2017-11-10T20:29:13.401Z,78.50
2017-11-10T20:31:39.686Z,79.20
2017-11-10T20:34:06.459Z,78.60
2017-11-10T20:36:33.279Z,78.10
2017-11-10T20:39:00.542Z,78.70
2017-11-10T20:41:28.064Z,78.20
2017-11-10T20:43:55.219Z,78.20
2017-11-10T20:46:22.255Z,78.50
2017-11-10T20:48:49.817Z,78.60
2017-11-10T20:51:17.755Z,78.80
2017-11-10T20:53:44.527Z,78.80
2017-11-10T20:56:11.276Z,78.60
2017-11-10T20:58:39.286Z,78.30
2017-11-10T21:01:06.679Z,78.30
2017-11-10T21:03:33.866Z,79.10
2017-11-10T21:06:01.418Z,79.00
2017-11-10T21:08:28.432Z,78.70
2017-11-10T21:10:56.069Z,78.80
2017-11-10T21:13:23.831Z,78.80
2017-11-10T21:15:51.097Z,78.90
2017-11-10T21:18:17.866Z,78.70
2017-11-10T21:20:44.065Z,78.80
2017-11-10T21:23:10.875Z,78.80
2017-11-10T21:25:37.272Z,78.90
2017-11-10T21:28:04.120Z,79.20
2017-11-10T21:30:30.737Z,79.10
2017-11-10T21:32:57.834Z,79.10
2017-11-10T21:35:25.287Z,79.10
2017-11-10T21:37:52.507Z,78.90
2017-11-10T21:40:19.245Z,78.90
2017-11-10T21:42:45.924Z,79.10
2017-11-10T21:45:13.537Z,79.10
2017-11-10T21:47:39.771Z,79.10
2017-11-10T21:50:06.589Z,79.20
2017-11-10T21:52:34.428Z,79.20
2017-11-10T21:55:01.924Z,79.20
2017-11-10T21:57:28.936Z,79.30
2017-11-10T21:59:57.675Z,79.20
2017-11-10T22:02:25.289Z,79.50
2017-11-10T22:04:53.218Z,79.10
2017-11-10T22:07:21.045Z,79.00
2017-11-10T22:09:47.811Z,78.90
2017-11-10T22:12:14.784Z,79.20
2017-11-10T22:14:41.619Z,79.80
2017-11-10T22:17:08.308Z,79.50
2017-11-10T22:19:37.486Z,79.70
2017-11-10T22:22:04.277Z,79.60
2017-11-10T22:24:31.975Z,79.50
2017-11-10T22:26:59.553Z,79.90
2017-11-10T22:29:26.163Z,79.90
2017-11-10T22:31:55.156Z,79.90
2017-11-10T22:34:22.515Z,79.90
2017-11-10T22:36:49.499Z,80.00
2017-11-10T22:39:17.055Z,80.10
2017-11-10T22:41:43.994Z,79.40
2017-11-10T22:44:11.941Z,80.20
2017-11-10T22:46:38.931Z,79.50
2017-11-10T22:49:05.527Z,79.30
2017-11-10T22:51:33.117Z,79.70
2017-11-10T22:54:00.140Z,79.80
2017-11-10T22:56:27.381Z,79.80
2017-11-10T22:58:54.207Z,80.00
2017-11-10T23:01:21.910Z,79.50
2017-11-10T23:03:49.499Z,80.10
2017-11-10T23:06:15.919Z,80.10
2017-11-10T23:08:42.785Z,79.80
2017-11-10T23:11:10.026Z,80.20
2017-11-10T23:13:37.042Z,79.90
2017-11-10T23:16:04.057Z,79.90
2017-11-10T23:18:33.105Z,80.30
2017-11-10T23:20:59.735Z,80.20
2017-11-10T23:23:25.917Z,80.50
2017-11-10T23:25:52.585Z,80.30
2017-11-10T23:28:18.803Z,80.10
2017-11-10T23:30:46.041Z,80.40
2017-11-10T23:33:12.446Z,81.00
2017-11-10T23:35:39.497Z,80.80
2017-11-10T23:38:06.241Z,80.70
2017-11-10T23:40:32.983Z,80.70
2017-11-10T23:42:59.753Z,80.70
2017-11-10T23:45:27.833Z,81.10
2017-11-10T23:47:54.558Z,81.10
2017-11-10T23:50:20.896Z,81.00
2017-11-10T23:52:47.308Z,80.90
2017-11-10T23:55:13.750Z,81.20
2017-11-10T23:57:41.215Z,81.50
